Time;durP1;ratioP1;P1;durP2;ratioP2;P2;SDS_P1;SDS_P2;PMS_P1;PMS_P2;Temp;Humidity;BMP_temperature;BMP_pressure;BME280_temperature;BME280_humidity;BME280_pressure;Samples;Min_cycle;Max_cycle;Signal;HPM_P1;HPM_P2
2024/02/10 00:00:56;;;;;;;6.40;1.75;;;10.60;99.90;;;;;;5039943;28;20553;-74
2024/02/10 00:03:23;;;;;;;9.30;1.70;;;10.60;99.90;;;;;;5041750;28;20176;-74
2024/02/10 00:05:48;;;;;;;3.33;1.20;;;10.60;99.90;;;;;;5038717;28;20124;-75
2024/02/10 00:08:14;;;;;;;6.55;1.30;;;10.60;99.90;;;;;;5043134;28;20175;-74
2024/02/10 00:10:41;;;;;;;7.10;1.60;;;10.60;99.90;;;;;;5035650;28;20037;-74
2024/02/10 00:13:07;;;;;;;9.63;1.67;;;10.60;99.90;;;;;;5043402;28;20903;-74
2024/02/10 00:15:33;;;;;;;13.13;1.83;;;10.60;99.90;;;;;;5043809;28;20087;-74
2024/02/10 00:17:58;;;;;;;6.10;2.15;;;10.60;99.90;;;;;;5042307;28;20406;-73
2024/02/10 00:20:25;;;;;;;5.07;1.17;;;10.60;99.90;;;;;;5043073;28;20402;-74
2024/02/10 00:22:52;;;;;;;7.75;1.55;;;10.60;99.90;;;;;;5041068;28;20034;-77
2024/02/10 00:25:18;;;;;;;6.15;1.33;;;10.60;99.90;;;;;;5039478;28;20076;-74
2024/02/10 00:27:46;;;;;;;5.40;1.45;;;10.60;99.90;;;;;;5044083;28;20033;-74
2024/02/10 00:30:13;;;;;;;6.70;1.60;;;10.60;99.90;;;;;;5038908;28;20060;-76
2024/02/10 00:32:39;;;;;;;6.05;1.65;;;10.60;99.90;;;;;;5038899;28;20368;-73
2024/02/10 00:35:06;;;;;;;9.63;2.03;;;10.60;99.90;;;;;;5041810;28;20493;-73
2024/02/10 00:37:31;;;;;;;3.88;1.58;;;10.50;99.90;;;;;;5040282;28;20578;-74
2024/02/10 00:39:58;;;;;;;6.65;1.25;;;10.50;99.90;;;;;;5046359;28;20036;-73
2024/02/10 00:42:27;;;;;;;6.47;1.42;;;10.50;99.90;;;;;;5043962;28;20037;-75
2024/02/10 00:44:54;;;;;;;10.48;1.60;;;10.40;99.90;;;;;;5042322;28;20040;-72
2024/02/10 00:47:20;;;;;;;8.45;1.60;;;10.40;99.90;;;;;;5040526;28;20044;-73
2024/02/10 00:49:48;;;;;;;7.20;1.67;;;10.40;99.90;;;;;;5038595;28;20040;-74
2024/02/10 00:52:17;;;;;;;6.63;1.35;;;10.40;99.90;;;;;;5041998;28;20572;-74
2024/02/10 00:54:45;;;;;;;4.75;1.10;;;10.40;99.90;;;;;;5037519;28;20380;-78
2024/02/10 00:57:11;;;;;;;3.97;1.48;;;10.40;99.90;;;;;;5042791;28;20490;-76
2024/02/10 00:59:44;;;;;;;10.15;2.55;;;10.50;99.90;;;;;;5034151;28;20017;-74
2024/02/10 01:02:11;;;;;;;6.55;1.30;;;10.50;99.90;;;;;;5039911;28;20029;-75
2024/02/10 01:04:39;;;;;;;4.70;1.35;;;10.40;99.90;;;;;;5039266;28;20424;-75
2024/02/10 01:07:05;;;;;;;3.40;1.35;;;10.50;99.90;;;;;;5042989;28;20424;-76
2024/02/10 01:09:32;;;;;;;7.95;2.55;;;10.50;99.90;;;;;;5037262;28;20032;-78
2024/02/10 01:11:57;;;;;;;7.40;1.55;;;10.40;99.90;;;;;;5040871;28;20036;-74
2024/02/10 01:14:28;;;;;;;8.07;1.80;;;10.50;99.90;;;;;;5045276;28;20390;-74
2024/02/10 01:16:53;;;;;;;3.85;1.90;;;10.50;99.90;;;;;;5038210;28;20026;-76
2024/02/10 01:19:20;;;;;;;10.13;1.70;;;10.40;99.90;;;;;;5039209;28;20041;-75
2024/02/10 01:21:46;;;;;;;5.70;1.50;;;10.40;99.90;;;;;;5041460;28;20498;-79
2024/02/10 01:24:12;;;;;;;6.85;1.75;;;10.40;99.90;;;;;;5044113;28;20048;-76
2024/02/10 01:26:40;;;;;;;4.47;1.60;;;10.40;99.90;;;;;;5045474;28;20021;-73
2024/02/10 01:29:08;;;;;;;4.72;1.60;;;10.40;99.90;;;;;;5044872;28;20663;-75
2024/02/10 01:31:34;;;;;;;3.60;1.40;;;10.50;99.90;;;;;;5040195;28;20111;-75
2024/02/10 01:34:00;;;;;;;8.95;2.95;;;10.40;99.90;;;;;;5035584;28;20037;-73
2024/02/10 01:36:25;;;;;;;4.78;1.67;;;10.30;99.90;;;;;;5040830;28;20049;-75
2024/02/10 01:38:51;;;;;;;4.30;1.65;;;10.30;99.90;;;;;;5045447;28;20025;-75
2024/02/10 01:41:17;;;;;;;21.58;1.92;;;10.30;99.90;;;;;;5038074;28;20041;-74
2024/02/10 01:43:43;;;;;;;5.45;2.40;;;10.20;99.90;;;;;;5035542;28;20045;-74
2024/02/10 01:46:15;;;;;;;4.60;1.40;;;10.20;99.90;;;;;;5038660;28;20072;-75
2024/02/10 01:48:42;;;;;;;6.75;1.60;;;10.20;99.90;;;;;;5038418;28;20087;-74
2024/02/10 01:51:10;;;;;;;10.52;2.17;;;10.10;99.90;;;;;;5045364;28;20559;-73
2024/02/10 01:53:38;;;;;;;8.65;1.85;;;10.20;99.90;;;;;;5044012;28;20041;-76
2024/02/10 01:56:04;;;;;;;8.27;2.53;;;10.20;99.90;;;;;;5049369;28;20033;-75
2024/02/10 01:58:33;;;;;;;5.05;1.88;;;10.20;99.90;;;;;;5040266;28;20056;-76
2024/02/10 02:00:59;;;;;;;4.90;1.80;;;10.20;99.90;;;;;;5041790;28;20061;-75
2024/02/10 02:03:26;;;;;;;8.98;1.95;;;10.20;99.90;;;;;;5038537;28;20036;-74
2024/02/10 02:05:53;;;;;;;3.25;1.55;;;10.20;99.90;;;;;;5046759;28;20098;-76
2024/02/10 02:08:20;;;;;;;8.93;1.52;;;10.20;99.90;;;;;;5051920;28;20114;-75
2024/02/10 02:10:46;;;;;;;7.88;1.92;;;10.20;99.90;;;;;;5048027;28;20034;-77
2024/02/10 02:13:12;;;;;;;5.03;1.70;;;10.30;99.90;;;;;;5045587;28;20045;-75
2024/02/10 02:15:37;;;;;;;6.15;2.25;;;10.30;99.90;;;;;;5048292;28;20025;-75
2024/02/10 02:18:03;;;;;;;4.93;1.73;;;10.30;99.90;;;;;;5049720;28;20522;-77
2024/02/10 02:20:29;;;;;;;8.18;1.85;;;10.30;99.90;;;;;;5039631;28;20045;-77
2024/02/10 02:22:55;;;;;;;7.35;1.30;;;10.30;99.90;;;;;;5044373;28;20038;-77
2024/02/10 02:25:21;;;;;;;6.30;1.88;;;10.30;99.90;;;;;;5040504;28;20390;-76
2024/02/10 02:27:48;;;;;;;10.90;2.67;;;10.30;99.90;;;;;;5052078;28;20025;-75
2024/02/10 02:30:15;;;;;;;10.27;2.70;;;10.30;99.90;;;;;;5059124;28;20039;-76
2024/02/10 02:32:40;;;;;;;4.00;1.52;;;10.30;99.90;;;;;;5061228;28;20064;-75
2024/02/10 02:35:09;;;;;;;4.72;2.17;;;10.40;99.90;;;;;;5058178;28;20445;-75
2024/02/10 02:37:42;;;;;;;4.03;1.52;;;10.30;99.90;;;;;;5046225;28;20622;-78
2024/02/10 02:40:09;;;;;;;12.02;2.03;;;10.30;99.90;;;;;;5067557;28;20036;-74
2024/02/10 02:42:35;;;;;;;5.00;2.05;;;10.30;99.90;;;;;;5056716;28;20044;-75
2024/02/10 02:45:05;;;;;;;8.45;1.77;;;10.40;99.90;;;;;;5049375;28;20047;-75
2024/02/10 02:47:37;;;;;;;5.47;1.42;;;10.40;99.90;;;;;;5050028;28;20098;-77
2024/02/10 02:50:04;;;;;;;6.97;1.80;;;10.30;99.90;;;;;;5047610;28;20033;-76
2024/02/10 02:52:30;;;;;;;5.55;1.50;;;10.30;99.90;;;;;;5041591;28;20405;-75
2024/02/10 02:54:59;;;;;;;4.78;1.67;;;10.30;99.90;;;;;;5064918;28;20029;-75
2024/02/10 02:57:25;;;;;;;8.90;2.17;;;10.30;99.90;;;;;;5066336;28;20073;-76
2024/02/10 02:59:50;;;;;;;9.60;1.40;;;10.40;99.90;;;;;;5048597;28;20024;-75
2024/02/10 03:02:16;;;;;;;5.53;1.55;;;10.40;99.90;;;;;;5067737;28;20036;-73
2024/02/10 03:04:42;;;;;;;4.28;1.48;;;10.40;99.90;;;;;;5060772;28;20139;-74
2024/02/10 03:07:09;;;;;;;4.50;1.50;;;10.40;99.90;;;;;;5059648;28;20044;-73
2024/02/10 03:09:35;;;;;;;4.38;1.40;;;10.40;99.90;;;;;;5049251;28;20793;-75
2024/02/10 03:12:01;;;;;;;4.93;1.38;;;10.40;99.90;;;;;;5062033;28;20040;-75
2024/02/10 03:14:28;;;;;;;2.58;1.30;;;10.40;99.90;;;;;;5061016;28;20040;-75
2024/02/10 03:16:54;;;;;;;2.83;1.30;;;10.40;99.90;;;;;;5062227;28;20060;-73
2024/02/10 03:19:20;;;;;;;8.00;1.80;;;10.30;99.90;;;;;;5065748;28;20060;-75
2024/02/10 03:21:45;;;;;;;7.03;1.73;;;10.30;99.90;;;;;;5063870;28;20068;-75
2024/02/10 03:24:11;;;;;;;3.65;1.45;;;10.30;99.90;;;;;;5048461;28;20032;-73
2024/02/10 03:26:37;;;;;;;5.13;1.73;;;10.30;99.90;;;;;;5046292;28;20033;-74
2024/02/10 03:29:07;;;;;;;8.38;1.33;;;10.30;99.90;;;;;;5047552;28;20414;-74
2024/02/10 03:31:32;;;;;;;2.83;1.40;;;10.20;99.90;;;;;;5058361;28;20037;-74
2024/02/10 03:33:58;;;;;;;8.18;1.88;;;10.10;99.90;;;;;;5063321;28;20098;-74
2024/02/10 03:36:27;;;;;;;13.93;2.50;;;10.10;99.90;;;;;;5046412;28;20032;-73
2024/02/10 03:38:54;;;;;;;4.65;1.55;;;10.00;99.90;;;;;;5065885;28;20038;-76
2024/02/10 03:41:20;;;;;;;6.13;1.45;;;10.00;99.90;;;;;;5045677;28;20573;-74
2024/02/10 03:43:46;;;;;;;5.55;1.77;;;9.90;99.90;;;;;;5063123;28;20504;-74
2024/02/10 03:46:14;;;;;;;4.75;1.33;;;9.90;99.90;;;;;;5049761;28;20036;-76
2024/02/10 03:48:42;;;;;;;3.63;1.42;;;9.90;99.90;;;;;;5039024;28;20036;-74
2024/02/10 03:51:09;;;;;;;2.88;1.40;;;9.90;99.90;;;;;;5046140;28;20072;-75
2024/02/10 03:53:35;;;;;;;3.78;1.63;;;9.90;99.90;;;;;;5045069;28;20067;-74
2024/02/10 03:56:01;;;;;;;6.95;1.65;;;9.90;99.90;;;;;;5061725;28;20032;-75
2024/02/10 03:58:27;;;;;;;3.95;1.83;;;9.90;99.90;;;;;;5048360;28;20033;-74
2024/02/10 04:00:53;;;;;;;6.38;1.80;;;9.90;99.90;;;;;;5041859;28;20516;-76
2024/02/10 04:03:20;;;;;;;4.80;1.95;;;9.90;99.90;;;;;;5044985;28;20040;-74
2024/02/10 04:05:48;;;;;;;4.72;1.80;;;10.00;99.90;;;;;;5058177;28;20036;-76
2024/02/10 04:08:18;;;;;;;6.97;1.73;;;10.00;99.90;;;;;;5063217;28;20036;-73
2024/02/10 04:10:44;;;;;;;3.22;1.65;;;10.00;99.90;;;;;;5043352;28;20088;-74
2024/02/10 04:13:10;;;;;;;9.05;1.67;;;10.00;99.90;;;;;;5061937;28;20591;-75
2024/02/10 04:15:35;;;;;;;7.65;1.60;;;10.10;99.90;;;;;;5042771;28;20044;-74
2024/02/10 04:18:02;;;;;;;6.35;1.45;;;10.10;99.90;;;;;;5042244;28;20060;-74
2024/02/10 04:20:28;;;;;;;5.63;1.42;;;10.10;99.90;;;;;;5055709;28;20029;-74
2024/02/10 04:22:57;;;;;;;6.97;1.73;;;10.10;99.90;;;;;;5066063;28;20044;-74
2024/02/10 04:25:22;;;;;;;5.70;1.83;;;10.20;99.90;;;;;;5064543;28;20039;-74
2024/02/10 04:27:48;;;;;;;3.33;1.35;;;10.20;99.90;;;;;;5058777;28;20029;-74
2024/02/10 04:30:13;;;;;;;3.72;1.75;;;10.20;99.90;;;;;;5061681;28;20033;-75
2024/02/10 04:32:42;;;;;;;4.45;1.70;;;10.20;99.90;;;;;;5041723;28;20043;-78
2024/02/10 04:35:09;;;;;;;5.18;1.52;;;10.20;99.90;;;;;;5058347;28;20116;-73
2024/02/10 04:37:35;;;;;;;3.22;1.02;;;10.20;99.90;;;;;;5058963;28;20063;-76
2024/02/10 04:40:02;;;;;;;2.58;1.23;;;10.20;99.90;;;;;;5061315;28;20041;-75
2024/02/10 04:42:28;;;;;;;4.47;1.50;;;10.20;99.90;;;;;;5060467;28;20025;-76
2024/02/10 04:44:58;;;;;;;5.18;1.90;;;10.20;99.90;;;;;;5049233;28;20183;-75
2024/02/10 04:47:25;;;;;;;2.53;1.35;;;10.20;99.90;;;;;;5059233;28;20034;-75
2024/02/10 04:49:51;;;;;;;2.90;1.30;;;10.20;99.90;;;;;;5043853;28;20054;-75
2024/02/10 04:52:18;;;;;;;4.63;1.10;;;10.20;99.90;;;;;;5043627;28;20043;-75
2024/02/10 04:54:44;;;;;;;2.53;1.17;;;10.20;99.90;;;;;;5047389;28;20490;-74
2024/02/10 04:57:09;;;;;;;4.25;1.27;;;10.20;99.90;;;;;;5061157;28;20029;-74
2024/02/10 04:59:35;;;;;;;4.75;1.48;;;10.20;99.90;;;;;;5047197;28;20036;-74
2024/02/10 05:02:02;;;;;;;2.25;1.10;;;10.20;99.90;;;;;;5066012;28;20028;-76
2024/02/10 05:04:27;;;;;;;2.15;1.30;;;10.20;99.90;;;;;;5064204;28;20033;-77
2024/02/10 05:06:53;;;;;;;4.88;1.00;;;10.20;99.90;;;;;;5065969;28;20032;-73
2024/02/10 05:09:19;;;;;;;2.17;1.00;;;10.20;99.90;;;;;;5053361;28;20040;-74
2024/02/10 05:11:44;;;;;;;5.60;1.95;;;10.20;99.90;;;;;;5051462;28;20044;-74
2024/02/10 05:14:10;;;;;;;4.13;1.00;;;10.20;99.90;;;;;;5047308;28;20036;-74
2024/02/10 05:16:37;;;;;;;7.07;1.02;;;10.20;99.90;;;;;;5046617;28;20104;-75
2024/02/10 05:19:03;;;;;;;3.75;1.50;;;10.20;99.90;;;;;;5058922;28;20055;-74
2024/02/10 05:21:29;;;;;;;4.47;1.02;;;10.10;99.90;;;;;;5057172;28;20039;-74
2024/02/10 05:23:55;;;;;;;5.20;1.05;;;10.20;99.90;;;;;;5044581;28;20036;-73
2024/02/10 05:26:21;;;;;;;2.95;1.10;;;10.20;99.90;;;;;;5046193;28;20065;-74
2024/02/10 05:28:49;;;;;;;2.75;0.98;;;10.20;99.90;;;;;;5042186;28;20128;-74
2024/02/10 05:31:15;;;;;;;6.70;1.20;;;10.20;99.90;;;;;;5057679;28;20041;-72
2024/02/10 05:33:44;;;;;;;2.75;1.08;;;10.20;99.90;;;;;;5038447;28;20566;-75
2024/02/10 05:36:10;;;;;;;6.72;1.38;;;10.20;99.90;;;;;;5043317;28;20036;-74
2024/02/10 05:38:38;;;;;;;3.38;1.50;;;10.10;99.90;;;;;;5042246;28;20036;-74
2024/02/10 05:41:05;;;;;;;4.47;1.63;;;10.10;99.90;;;;;;5045456;28;20036;-76
2024/02/10 05:43:34;;;;;;;5.18;1.88;;;10.20;99.90;;;;;;5054862;28;20033;-82
2024/02/10 05:46:06;;;;;;;6.78;1.20;;;10.10;99.90;;;;;;5057077;28;20040;-74
2024/02/10 05:48:32;;;;;;;6.25;1.40;;;10.10;99.90;;;;;;5058032;28;20036;-75
2024/02/10 05:51:01;;;;;;;9.68;1.20;;;10.10;99.90;;;;;;5048465;28;20485;-74
2024/02/10 05:53:27;;;;;;;5.63;1.05;;;10.10;99.90;;;;;;5043204;28;20052;-74
2024/02/10 05:55:53;;;;;;;5.68;1.23;;;10.10;99.90;;;;;;5066672;28;20033;-75
2024/02/10 05:58:23;;;;;;;4.03;1.17;;;10.10;99.90;;;;;;5058711;28;20093;-74
2024/02/10 06:00:51;;;;;;;4.25;1.48;;;10.10;99.90;;;;;;5046996;28;20028;-74
2024/02/10 06:03:17;;;;;;;4.65;1.33;;;10.10;99.90;;;;;;5061233;28;20047;-74
2024/02/10 06:05:43;;;;;;;4.25;1.10;;;10.10;99.90;;;;;;5043434;28;20401;-74
2024/02/10 06:08:12;;;;;;;8.45;1.88;;;10.10;99.90;;;;;;5046970;28;20049;-74
2024/02/10 06:10:41;;;;;;;6.78;1.10;;;10.10;99.90;;;;;;5045325;28;20028;-75
2024/02/10 06:13:07;;;;;;;5.43;0.93;;;10.10;99.90;;;;;;5046597;28;20100;-74
2024/02/10 06:15:33;;;;;;;3.35;0.98;;;10.10;99.90;;;;;;5045958;28;20115;-75
2024/02/10 06:18:03;;;;;;;5.55;1.20;;;10.10;99.90;;;;;;5049168;28;20044;-75
2024/02/10 06:20:29;;;;;;;3.90;1.85;;;10.10;99.90;;;;;;5059234;28;20041;-75
2024/02/10 06:22:55;;;;;;;5.85;1.30;;;10.10;99.90;;;;;;5040784;28;20032;-75
2024/02/10 06:25:25;;;;;;;6.60;0.90;;;10.00;99.90;;;;;;5046258;28;20037;-75
2024/02/10 06:27:59;;;;;;;3.28;0.90;;;10.10;99.90;;;;;;5048235;28;20384;-75
2024/02/10 06:30:30;;;;;;;3.47;1.40;;;10.10;99.90;;;;;;5056927;28;20040;-74
2024/02/10 06:32:56;;;;;;;4.13;1.15;;;10.10;99.90;;;;;;5063933;28;20040;-76
2024/02/10 06:35:22;;;;;;;2.55;1.15;;;10.00;99.90;;;;;;5050274;28;20041;-78
2024/02/10 06:37:51;;;;;;;5.60;1.23;;;10.10;99.90;;;;;;5042478;28;20144;-77
2024/02/10 06:40:18;;;;;;;2.80;1.25;;;10.10;99.90;;;;;;5049054;28;20496;-74
2024/02/10 06:42:52;;;;;;;3.00;0.93;;;10.10;99.90;;;;;;5042522;28;20116;-73
2024/02/10 06:45:23;;;;;;;2.17;0.90;;;10.10;99.90;;;;;;5040910;28;20033;-75
2024/02/10 06:47:50;;;;;;;2.08;0.98;;;10.10;99.90;;;;;;5042929;28;20045;-75
2024/02/10 06:50:23;;;;;;;4.65;1.00;;;10.10;99.90;;;;;;5041451;28;20029;-75
2024/02/10 06:52:49;;;;;;;2.58;1.00;;;10.10;99.90;;;;;;5043649;28;20049;-74
2024/02/10 06:55:15;;;;;;;4.30;1.00;;;10.00;99.90;;;;;;5038325;28;20083;-73
2024/02/10 06:57:42;;;;;;;3.95;1.00;;;10.10;99.90;;;;;;5036262;28;20033;-76
2024/02/10 07:00:13;;;;;;;3.42;0.90;;;10.10;99.90;;;;;;5038095;28;20033;-76
2024/02/10 07:02:43;;;;;;;3.97;1.00;;;10.10;99.90;;;;;;5041765;28;20037;-75
2024/02/10 07:05:16;;;;;;;4.35;1.05;;;10.00;99.90;;;;;;5044376;28;20033;-75
2024/02/10 07:07:43;;;;;;;2.90;1.20;;;10.00;99.90;;;;;;5038579;28;20379;-73
2024/02/10 07:10:17;;;;;;;5.38;1.33;;;9.90;99.90;;;;;;5041668;28;20037;-76
2024/02/10 07:12:45;;;;;;;4.90;1.30;;;9.90;99.90;;;;;;5040548;28;20045;-75
2024/02/10 07:15:21;;;;;;;3.80;0.90;;;9.90;99.90;;;;;;5039054;28;20057;-74
2024/02/10 07:17:49;;;;;;;4.97;1.20;;;9.90;99.90;;;;;;5039232;28;20103;-75
2024/02/10 07:20:23;;;;;;;1.48;0.85;;;9.90;99.90;;;;;;5045226;28;20025;-75
2024/02/10 07:22:58;;;;;;;6.43;1.70;;;9.90;99.90;;;;;;5039990;28;20034;-73
2024/02/10 07:25:28;;;;;;;2.25;1.20;;;9.90;99.90;;;;;;5044572;28;20087;-75
2024/02/10 07:28:00;;;;;;;1.77;1.02;;;9.90;99.90;;;;;;5040702;28;20086;-77
2024/02/10 07:30:27;;;;;;;2.58;1.02;;;9.90;99.90;;;;;;5044330;28;20036;-74
2024/02/10 07:32:54;;;;;;;7.88;1.17;;;9.90;99.90;;;;;;5043179;28;20044;-76
2024/02/10 07:35:22;;;;;;;4.75;1.00;;;9.90;99.90;;;;;;5045869;28;20075;-77
2024/02/10 07:37:49;;;;;;;5.45;1.60;;;9.90;99.90;;;;;;5046535;28;20113;-76
2024/02/10 07:40:15;;;;;;;4.28;1.25;;;9.90;99.90;;;;;;5045007;28;20090;-77
2024/02/10 07:42:40;;;;;;;2.83;1.08;;;10.00;99.90;;;;;;5044519;28;20541;-76
2024/02/10 07:45:07;;;;;;;5.60;1.08;;;10.10;99.90;;;;;;5043071;28;20032;-76
2024/02/10 07:47:33;;;;;;;2.40;0.73;;;10.10;99.90;;;;;;5038983;28;20052;-76
2024/02/10 07:49:59;;;;;;;2.20;1.02;;;10.10;99.90;;;;;;5039314;28;20036;-75
2024/02/10 07:52:30;;;;;;;3.10;0.90;;;10.10;99.90;;;;;;5043590;28;20024;-76
2024/02/10 07:54:58;;;;;;;5.50;1.00;;;10.10;99.90;;;;;;5041606;28;20082;-75
2024/02/10 07:57:25;;;;;;;3.60;0.85;;;10.10;99.90;;;;;;5042851;28;20490;-73
2024/02/10 07:59:52;;;;;;;4.95;1.73;;;10.10;99.90;;;;;;5042577;28;20036;-74
2024/02/10 08:02:23;;;;;;;12.40;1.02;;;10.20;99.90;;;;;;5042348;28;20085;-75
2024/02/10 08:04:51;;;;;;;3.38;1.30;;;10.20;99.90;;;;;;5046216;28;20112;-75
2024/02/10 08:07:23;;;;;;;3.28;1.30;;;10.20;99.90;;;;;;5045790;28;20116;-75
2024/02/10 08:09:49;;;;;;;6.15;1.35;;;10.40;99.90;;;;;;5042732;28;20494;-77
2024/02/10 08:12:23;;;;;;;6.00;0.90;;;10.40;99.90;;;;;;5039881;28;20030;-73
2024/02/10 08:14:52;;;;;;;2.70;1.02;;;10.50;99.90;;;;;;5038296;28;20029;-79
2024/02/10 08:17:22;;;;;;;2.08;1.00;;;10.60;99.90;;;;;;5036290;28;20021;-73
2024/02/10 08:19:51;;;;;;;7.43;1.65;;;10.60;99.90;;;;;;5042507;28;20037;-75
2024/02/10 08:22:17;;;;;;;2.65;0.93;;;10.70;99.90;;;;;;5034877;28;20033;-74
2024/02/10 08:24:43;;;;;;;5.18;1.48;;;10.60;99.90;;;;;;5041276;28;21612;-74
2024/02/10 08:27:09;;;;;;;4.15;0.98;;;10.60;99.90;;;;;;5048167;28;20029;-76
2024/02/10 08:29:35;;;;;;;3.60;1.10;;;10.60;99.90;;;;;;5045460;28;20120;-73
2024/02/10 08:32:02;;;;;;;3.22;1.25;;;10.50;99.90;;;;;;5046489;28;20032;-74
2024/02/10 08:34:31;;;;;;;2.92;0.98;;;10.50;99.90;;;;;;5045995;28;20029;-74
2024/02/10 08:36:57;;;;;;;1.25;0.77;;;10.40;99.90;;;;;;5045718;28;20044;-74
2024/02/10 08:39:23;;;;;;;2.20;0.93;;;10.40;99.90;;;;;;5042393;28;20025;-74
2024/02/10 08:41:48;;;;;;;7.45;1.17;;;10.40;99.90;;;;;;5038298;28;20029;-76
2024/02/10 08:44:14;;;;;;;3.90;1.08;;;10.40;99.90;;;;;;5036292;28;20036;-75
2024/02/10 08:46:42;;;;;;;2.58;1.10;;;10.40;99.90;;;;;;5041748;28;20040;-75
2024/02/10 08:49:14;;;;;;;4.97;1.20;;;10.40;99.90;;;;;;5040536;28;20132;-75
2024/02/10 08:51:49;;;;;;;5.85;1.50;;;10.40;99.90;;;;;;5043330;28;20037;-77
2024/02/10 08:54:18;;;;;;;2.58;1.40;;;10.50;99.90;;;;;;5035706;28;20064;-75
2024/02/10 08:56:44;;;;;;;4.72;1.80;;;10.60;99.90;;;;;;5041936;28;20044;-78
2024/02/10 08:59:13;;;;;;;2.75;1.63;;;10.60;99.90;;;;;;5038518;28;20053;-75
2024/02/10 09:01:42;;;;;;;12.95;1.60;;;10.70;99.90;;;;;;5039795;28;20082;-75
2024/02/10 09:04:09;;;;;;;4.55;1.65;;;10.70;99.90;;;;;;5043346;28;20124;-77
2024/02/10 09:06:35;;;;;;;8.40;1.85;;;10.80;99.90;;;;;;5046386;28;20029;-75
2024/02/10 09:09:01;;;;;;;2.53;1.40;;;10.80;99.90;;;;;;5042131;28;20072;-75
2024/02/10 09:11:27;;;;;;;4.63;0.98;;;10.90;99.90;;;;;;5044194;28;20048;-74
2024/02/10 09:13:53;;;;;;;3.50;1.70;;;10.90;99.90;;;;;;5040114;28;20033;-74
2024/02/10 09:16:18;;;;;;;2.70;1.20;;;10.90;99.90;;;;;;5045269;28;20048;-74
2024/02/10 09:18:44;;;;;;;2.45;1.17;;;11.00;99.90;;;;;;5038022;28;20136;-79
2024/02/10 09:21:14;;;;;;;1.90;1.02;;;11.00;99.90;;;;;;5032690;28;20079;-76
2024/02/10 09:23:42;;;;;;;2.97;1.50;;;11.00;99.90;;;;;;5040605;28;20562;-76
2024/02/10 09:26:15;;;;;;;1.67;1.13;;;11.10;99.90;;;;;;5035862;28;20087;-76
2024/02/10 09:28:44;;;;;;;4.65;1.20;;;11.20;99.90;;;;;;5041381;28;20154;-75
2024/02/10 09:31:13;;;;;;;2.83;1.00;;;11.30;99.90;;;;;;5032363;28;20037;-77
2024/02/10 09:33:39;;;;;;;2.25;1.15;;;11.40;99.90;;;;;;5037975;28;20041;-75
2024/02/10 09:36:08;;;;;;;2.55;1.48;;;11.50;99.90;;;;;;5037176;28;20111;-75
2024/02/10 09:38:34;;;;;;;3.45;1.17;;;11.60;99.90;;;;;;5034944;28;20025;-75
2024/02/10 09:41:00;;;;;;;2.30;1.10;;;11.50;99.90;;;;;;5035671;28;20129;-75
2024/02/10 09:43:31;;;;;;;1.92;0.88;;;11.60;99.90;;;;;;5041849;28;20101;-73
2024/02/10 09:46:01;;;;;;;2.55;1.00;;;11.60;99.90;;;;;;5042994;28;20593;-76
2024/02/10 09:48:29;;;;;;;4.30;1.20;;;11.60;99.90;;;;;;5028590;28;20044;-76
2024/02/10 09:50:55;;;;;;;3.28;1.35;;;11.60;99.90;;;;;;5042830;28;20482;-77
2024/02/10 09:53:20;;;;;;;4.40;1.45;;;11.60;99.90;;;;;;5041524;28;20044;-75
2024/02/10 09:55:46;;;;;;;2.63;1.00;;;11.60;99.90;;;;;;5040897;28;20029;-74
2024/02/10 09:58:11;;;;;;;2.97;1.27;;;11.70;99.90;;;;;;5040426;28;20033;-75
2024/02/10 10:00:37;;;;;;;4.72;1.10;;;11.60;99.90;;;;;;5035853;28;20498;-76
2024/02/10 10:03:03;;;;;;;2.67;0.98;;;11.60;99.90;;;;;;5044650;28;20044;-77
2024/02/10 10:05:29;;;;;;;2.67;0.95;;;11.60;99.90;;;;;;5042686;28;20037;-73
2024/02/10 10:07:55;;;;;;;2.67;1.48;;;11.70;99.90;;;;;;5047148;28;20075;-74
2024/02/10 10:10:21;;;;;;;3.70;1.17;;;11.70;99.90;;;;;;5044252;28;20098;-75
2024/02/10 10:12:49;;;;;;;5.10;1.40;;;11.80;99.90;;;;;;5037611;28;20045;-75
2024/02/10 10:15:14;;;;;;;2.75;1.48;;;11.80;99.90;;;;;;5043333;28;20037;-76
2024/02/10 10:17:40;;;;;;;2.55;1.20;;;11.80;99.90;;;;;;5040786;28;20033;-81
2024/02/10 10:20:06;;;;;;;5.75;0.98;;;11.90;99.90;;;;;;5035197;28;20044;-78
2024/02/10 10:22:38;;;;;;;7.22;1.25;;;11.90;99.90;;;;;;5043612;28;20034;-76
2024/02/10 10:25:05;;;;;;;2.92;1.10;;;11.90;99.90;;;;;;5051389;28;20055;-77
2024/02/10 10:27:31;;;;;;;5.20;1.30;;;11.90;99.90;;;;;;5044516;28;20029;-76
2024/02/10 10:29:57;;;;;;;3.30;1.30;;;12.00;99.90;;;;;;5049094;28;20043;-78
2024/02/10 10:32:27;;;;;;;2.92;1.00;;;12.00;99.90;;;;;;5043760;28;20026;-78
2024/02/10 10:34:57;;;;;;;2.38;1.20;;;12.10;99.90;;;;;;5049455;28;20056;-76
2024/02/10 10:37:24;;;;;;;3.83;0.95;;;12.00;99.90;;;;;;5049946;28;20486;-76
2024/02/10 10:39:51;;;;;;;4.20;1.70;;;12.10;99.90;;;;;;5042078;28;20040;-77
2024/02/10 10:42:20;;;;;;;2.53;1.10;;;12.10;99.90;;;;;;5043338;28;20038;-76
2024/02/10 10:44:50;;;;;;;3.72;1.38;;;12.20;99.90;;;;;;5039271;28;20030;-77
2024/02/10 10:47:23;;;;;;;2.95;1.13;;;12.30;99.90;;;;;;5043241;28;20175;-77
2024/02/10 10:49:52;;;;;;;2.95;1.40;;;12.40;99.90;;;;;;5033724;28;20140;-76
2024/02/10 10:52:21;;;;;;;2.15;1.10;;;12.40;99.90;;;;;;5042197;28;20124;-79
2024/02/10 10:54:53;;;;;;;4.32;1.08;;;12.50;99.90;;;;;;5041058;28;20493;-73
2024/02/10 10:57:24;;;;;;;3.05;0.90;;;12.60;99.90;;;;;;5049412;28;20037;-75
2024/02/10 11:00:07;;;;;;;3.75;0.98;;;12.60;99.90;;;;;;5041127;28;20033;-75
2024/02/10 11:02:33;;;;;;;4.15;0.93;;;12.70;99.90;;;;;;5044664;28;20499;-74
2024/02/10 11:05:19;;;;;;;2.95;1.15;;;12.60;99.90;;;;;;5052286;28;20037;-79
2024/02/10 11:07:48;;;;;;;3.17;1.10;;;12.70;99.90;;;;;;5061239;28;20040;-80
2024/02/10 11:10:38;;;;;;;3.05;1.20;;;12.60;99.90;;;;;;5048284;28;20051;-77
2024/02/10 11:13:05;;;;;;;1.10;0.73;;;12.60;99.90;;;;;;5068310;28;20225;-78
2024/02/10 11:15:32;;;;;;;2.80;0.93;;;12.70;99.90;;;;;;5041480;28;20059;-76
2024/02/10 11:18:00;;;;;;;2.38;1.30;;;12.70;99.90;;;;;;5044843;28;20036;-78
2024/02/10 11:20:37;;;;;;;2.78;0.85;;;12.80;99.90;;;;;;5046528;28;20040;-74
2024/02/10 11:23:20;;;;;;;5.88;0.70;;;12.80;99.90;;;;;;5042078;28;20086;-76
2024/02/10 11:25:46;;;;;;;1.67;0.77;;;12.80;99.90;;;;;;5050451;28;20041;-75
2024/02/10 11:28:23;;;;;;;3.17;1.27;;;12.80;99.90;;;;;;5049531;28;20040;-76
2024/02/10 11:30:49;;;;;;;2.85;0.90;;;12.80;99.90;;;;;;5046401;28;20032;-79
2024/02/10 11:33:23;;;;;;;2.95;1.00;;;12.90;99.90;;;;;;5051122;28;20043;-75
2024/02/10 11:35:50;;;;;;;2.38;0.90;;;12.90;99.90;;;;;;5053701;28;20139;-78
2024/02/10 11:38:16;;;;;;;2.83;0.90;;;12.90;99.90;;;;;;5054990;28;20493;-77
2024/02/10 11:40:42;;;;;;;4.13;1.13;;;12.90;99.90;;;;;;5045915;28;20088;-75
2024/02/10 11:43:10;;;;;;;4.40;1.50;;;13.00;99.90;;;;;;5049123;28;20447;-76
2024/02/10 11:45:47;;;;;;;3.83;1.02;;;13.00;99.90;;;;;;5042835;28;20021;-74
2024/02/10 11:48:13;;;;;;;4.47;1.33;;;12.90;99.90;;;;;;5049694;28;20139;-75
2024/02/10 11:50:42;;;;;;;4.05;1.27;;;12.90;99.90;;;;;;5051915;28;20033;-78
2024/02/10 11:53:15;;;;;;;2.90;1.42;;;12.90;99.90;;;;;;5042420;28;20537;-75
2024/02/10 11:55:43;;;;;;;2.28;1.27;;;13.00;99.90;;;;;;5059665;28;20040;-75
2024/02/10 11:58:16;;;;;;;4.95;1.23;;;13.00;99.90;;;;;;5063131;28;20044;-73
2024/02/10 12:00:43;;;;;;;3.60;1.42;;;13.00;99.90;;;;;;5045920;28;20036;-74
2024/02/10 12:03:10;;;;;;;3.47;1.50;;;13.10;99.90;;;;;;5039578;28;20043;-74
2024/02/10 12:05:38;;;;;;;4.22;1.38;;;13.10;99.90;;;;;;5039724;28;20036;-72
2024/02/10 12:08:07;;;;;;;2.72;1.42;;;13.20;99.90;;;;;;5044325;28;20028;-74
2024/02/10 12:10:37;;;;;;;2.67;1.20;;;13.20;99.90;;;;;;5058955;28;20037;-75
2024/02/10 12:13:03;;;;;;;3.92;1.98;;;13.20;99.90;;;;;;5058732;28;20036;-75
2024/02/10 12:15:28;;;;;;;2.67;1.38;;;13.20;99.90;;;;;;5057465;28;20032;-74
2024/02/10 12:17:58;;;;;;;1.75;1.10;;;13.20;99.90;;;;;;5064803;28;20037;-74
2024/02/10 12:20:25;;;;;;;2.85;1.30;;;13.20;99.90;;;;;;5061696;28;20036;-75
2024/02/10 12:22:52;;;;;;;2.80;1.25;;;13.30;99.90;;;;;;5044217;28;20086;-74
2024/02/10 12:25:19;;;;;;;4.05;1.30;;;13.30;99.90;;;;;;5066744;28;20044;-74
2024/02/10 12:27:45;;;;;;;3.75;1.60;;;13.30;99.90;;;;;;5056364;28;20066;-76
2024/02/10 12:30:12;;;;;;;4.18;1.40;;;13.30;99.90;;;;;;5063286;28;20040;-78
2024/02/10 12:32:37;;;;;;;4.60;1.95;;;13.30;99.90;;;;;;5060535;28;20044;-75
2024/02/10 12:35:06;;;;;;;4.25;1.55;;;13.20;99.90;;;;;;5063976;28;20024;-74
2024/02/10 12:37:33;;;;;;;3.50;1.75;;;13.20;99.90;;;;;;5054068;28;20115;-76
2024/02/10 12:39:59;;;;;;;7.65;2.50;;;13.10;99.90;;;;;;5039758;28;20021;-75
2024/02/10 12:42:24;;;;;;;10.88;2.38;;;13.20;99.90;;;;;;5046615;28;20098;-75
2024/02/10 12:44:50;;;;;;;2.83;1.90;;;13.20;99.90;;;;;;5043002;28;20035;-75
2024/02/10 12:47:15;;;;;;;2.45;1.55;;;13.20;99.90;;;;;;5046046;28;20055;-76
2024/02/10 12:49:43;;;;;;;4.07;2.03;;;13.20;99.90;;;;;;5045745;28;20028;-73